createdAt,value
2023-07-09T00:01:27.911Z,98938.38
2023-07-09T00:03:55.644Z,98934.84
2023-07-09T00:06:23.399Z,98936.59
2023-07-09T00:08:51.533Z,98932.78
2023-07-09T00:11:20.506Z,98928.03
2023-07-09T00:13:48.251Z,98932.94
2023-07-09T00:16:17.956Z,98933.31
2023-07-09T00:18:45.837Z,98937.63
2023-07-09T00:21:14.149Z,98945.34
2023-07-09T00:23:42.680Z,98936.19
2023-07-09T00:26:10.989Z,98940.06
2023-07-09T00:28:40.084Z,98944.59
2023-07-09T00:31:11.264Z,98940.91
2023-07-09T00:33:39.973Z,98946.66
2023-07-09T00:36:15.196Z,98946.78
2023-07-09T00:38:49.265Z,98949.34
2023-07-09T00:41:19.566Z,98942.31
2023-07-09T00:43:49.473Z,98945.50
2023-07-09T00:46:32.042Z,98954.38
2023-07-09T00:49:04.067Z,98951.50
2023-07-09T00:51:31.814Z,98962.09
2023-07-09T00:54:00.760Z,98956.59
2023-07-09T00:56:29.941Z,98952.66
2023-07-09T00:59:01.365Z,98953.97
2023-07-09T01:01:29.505Z,98962.13
2023-07-09T01:04:00.216Z,98954.25
2023-07-09T01:06:33.340Z,98958.94
2023-07-09T01:09:04.613Z,98955.59
2023-07-09T01:11:34.399Z,98957.34
2023-07-09T01:14:04.915Z,98967.13
2023-07-09T01:16:33.794Z,98962.38
2023-07-09T01:19:02.243Z,98965.72
2023-07-09T01:21:31.288Z,98964.16
2023-07-09T01:23:59.299Z,98964.81
2023-07-09T01:26:28.165Z,98961.31
2023-07-09T01:28:56.901Z,98963.31
2023-07-09T01:31:24.801Z,98960.94
2023-07-09T01:33:53.025Z,98963.25
2023-07-09T01:36:23.508Z,98964.09
2023-07-09T01:38:55.538Z,98958.75
2023-07-09T01:41:23.294Z,98965.00
2023-07-09T01:43:52.664Z,98962.91
2023-07-09T01:46:20.363Z,98956.34
2023-07-09T01:48:51.324Z,98960.69
2023-07-09T01:51:19.207Z,98959.34
2023-07-09T01:53:46.943Z,98955.31
2023-07-09T01:56:15.940Z,98960.69
2023-07-09T01:58:43.615Z,98957.03
2023-07-09T02:01:12.946Z,98960.47
2023-07-09T02:03:40.697Z,98960.47
2023-07-09T02:06:10.781Z,98970.03
2023-07-09T02:08:39.179Z,98974.53
2023-07-09T02:11:06.756Z,98981.22
2023-07-09T02:13:35.831Z,98982.88
2023-07-09T02:16:03.780Z,98973.53
2023-07-09T02:18:31.703Z,98975.88
2023-07-09T02:21:01.932Z,98974.38
2023-07-09T02:23:30.180Z,98971.22
2023-07-09T02:26:00.038Z,98963.81
2023-07-09T02:28:27.913Z,98974.44
2023-07-09T02:30:56.939Z,98964.16
2023-07-09T02:33:24.703Z,98972.59
2023-07-09T02:35:52.447Z,98975.41
2023-07-09T02:38:20.069Z,98972.25
2023-07-09T02:40:48.407Z,98981.28
2023-07-09T02:43:16.868Z,98978.59
2023-07-09T02:45:44.576Z,98979.97
2023-07-09T02:48:14.253Z,98989.66
2023-07-09T02:50:42.327Z,98982.78
2023-07-09T02:53:09.980Z,98989.88
2023-07-09T02:55:37.862Z,98991.53
2023-07-09T02:58:05.528Z,98991.22
2023-07-09T03:00:33.151Z,98997.59
2023-07-09T03:03:01.018Z,98999.25
2023-07-09T03:05:30.049Z,99001.31
2023-07-09T03:07:57.724Z,98992.72
2023-07-09T03:10:25.340Z,98988.03
2023-07-09T03:12:52.984Z,98999.78
2023-07-09T03:15:20.596Z,98998.13
2023-07-09T03:17:48.281Z,99007.81
2023-07-09T03:20:15.881Z,99003.31
2023-07-09T03:22:45.145Z,98996.41
2023-07-09T03:25:12.791Z,98994.72
2023-07-09T03:27:42.732Z,98989.53
2023-07-09T03:30:10.915Z,98991.56
2023-07-09T03:32:38.514Z,98991.03
2023-07-09T03:35:06.363Z,98995.22
2023-07-09T03:37:33.970Z,99001.44
2023-07-09T03:40:05.096Z,98997.41
2023-07-09T03:42:32.796Z,99007.13
2023-07-09T03:45:00.440Z,99015.06
2023-07-09T03:47:28.118Z,99017.72
2023-07-09T03:49:55.844Z,99013.69
2023-07-09T03:52:23.618Z,99009.50
2023-07-09T03:54:51.192Z,99010.53
2023-07-09T03:57:20.110Z,99014.06
2023-07-09T03:59:47.714Z,99013.22
2023-07-09T04:02:15.332Z,99017.53
2023-07-09T04:04:43.007Z,99018.06
2023-07-09T04:07:10.707Z,99021.09
2023-07-09T04:09:40.701Z,99013.19
2023-07-09T04:12:08.911Z,99019.91
2023-07-09T04:14:37.934Z,99016.06
2023-07-09T04:17:05.816Z,99012.66
2023-07-09T04:19:33.497Z,99015.34
2023-07-09T04:22:01.219Z,99022.59
2023-07-09T04:24:29.652Z,99022.59
2023-07-09T04:26:57.634Z,99023.75
2023-07-09T04:29:25.427Z,99020.88
2023-07-09T04:31:54.357Z,99023.50
2023-07-09T04:34:21.984Z,99028.69
2023-07-09T04:36:49.554Z,99026.50
2023-07-09T04:39:17.134Z,99024.78
2023-07-09T04:41:44.828Z,99025.78
2023-07-09T04:44:12.419Z,99024.44
2023-07-09T04:46:40.346Z,99023.78
2023-07-09T04:49:13.515Z,99022.09
2023-07-09T04:51:41.183Z,99031.28
2023-07-09T04:54:08.833Z,99029.69
2023-07-09T04:56:37.721Z,99032.72
2023-07-09T04:59:05.384Z,99034.00
2023-07-09T05:01:33.063Z,99032.97
2023-07-09T05:04:00.782Z,99027.53
2023-07-09T05:06:29.725Z,99034.56
2023-07-09T05:08:57.449Z,99040.44
2023-07-09T05:11:25.046Z,99040.28
2023-07-09T05:13:54.163Z,99043.63
2023-07-09T05:16:22.065Z,99042.47
2023-07-09T05:18:49.715Z,99044.63
2023-07-09T05:21:17.438Z,99046.75
2023-07-09T05:23:46.440Z,99050.94
2023-07-09T05:26:14.092Z,99054.22
2023-07-09T05:28:41.726Z,99049.91
2023-07-09T05:31:09.426Z,99053.88
2023-07-09T05:33:37.080Z,99057.22
2023-07-09T05:36:05.127Z,99054.34
2023-07-09T05:38:32.961Z,99047.09
2023-07-09T05:41:03.619Z,99044.69
2023-07-09T05:43:31.379Z,99051.13
2023-07-09T05:45:59.062Z,99048.06
2023-07-09T05:48:26.650Z,99046.06
2023-07-09T05:51:01.786Z,99046.06
2023-07-09T05:53:29.389Z,99044.50
2023-07-09T05:55:57.173Z,99051.28
2023-07-09T05:58:26.123Z,99046.91
2023-07-09T06:00:54.793Z,99052.56
2023-07-09T06:03:23.016Z,99059.09
2023-07-09T06:05:50.952Z,99050.91
2023-07-09T06:08:18.818Z,99052.75
2023-07-09T06:10:52.975Z,99051.38
2023-07-09T06:13:20.857Z,99052.97
2023-07-09T06:15:50.411Z,99053.53
2023-07-09T06:18:18.078Z,99057.25
2023-07-09T06:20:48.560Z,99053.81
2023-07-09T06:23:16.287Z,99053.53
2023-07-09T06:25:44.390Z,99056.47
2023-07-09T06:28:12.041Z,99063.16
2023-07-09T06:30:40.705Z,99062.03
2023-07-09T06:33:12.397Z,99067.44
2023-07-09T06:35:40.553Z,99056.63
2023-07-09T06:38:08.289Z,99064.56
2023-07-09T06:40:36.453Z,99053.19
2023-07-09T06:43:04.109Z,99059.00
2023-07-09T06:45:37.329Z,99057.44
2023-07-09T06:48:05.271Z,99064.66
2023-07-09T06:50:36.776Z,99052.25
2023-07-09T06:53:04.454Z,99052.78
2023-07-09T06:55:32.513Z,99060.34
2023-07-09T06:58:00.167Z,99052.84
2023-07-09T07:00:27.970Z,99061.25
2023-07-09T07:02:55.729Z,99058.78
2023-07-09T07:05:39.848Z,99057.06
2023-07-09T07:08:10.145Z,99063.81
2023-07-09T07:10:42.287Z,99059.72
2023-07-09T07:13:16.608Z,99057.22
2023-07-09T07:15:46.905Z,99063.47
2023-07-09T07:18:16.504Z,99058.03
2023-07-09T07:20:45.850Z,99055.97
2023-07-09T07:23:14.870Z,99059.47
2023-07-09T07:25:43.160Z,99054.88
2023-07-09T07:28:12.093Z,99058.69
2023-07-09T07:30:39.978Z,99047.56
2023-07-09T07:33:15.367Z,99047.66
2023-07-09T07:36:24.560Z,99053.66
2023-07-09T07:38:38.062Z,99043.53
2023-07-09T07:41:05.718Z,99037.88
2023-07-09T07:43:33.409Z,99045.44
2023-07-09T07:46:01.309Z,99045.84
2023-07-09T07:48:28.991Z,99040.97
2023-07-09T07:51:00.370Z,99040.09
2023-07-09T07:53:30.679Z,99040.56
2023-07-09T07:56:08.571Z,99034.25
2023-07-09T07:58:36.675Z,99030.66
2023-07-09T08:01:05.010Z,99027.00
2023-07-09T08:03:35.042Z,99027.59
2023-07-09T08:06:03.291Z,99026.31
2023-07-09T08:08:33.122Z,99019.78
2023-07-09T08:11:05.948Z,99022.06
2023-07-09T08:13:35.386Z,99020.13
2023-07-09T08:16:03.480Z,99029.06
2023-07-09T08:18:31.671Z,99024.88
2023-07-09T08:21:00.219Z,99024.88
2023-07-09T08:23:28.019Z,99019.78
2023-07-09T08:25:55.908Z,99013.88
2023-07-09T08:28:23.577Z,99009.78
2023-07-09T08:30:55.001Z,99011.31
2023-07-09T08:33:22.967Z,99023.34
2023-07-09T08:35:51.214Z,99018.19
2023-07-09T08:38:19.912Z,99017.91
2023-07-09T08:40:52.459Z,99011.91
2023-07-09T08:43:24.662Z,99013.69
2023-07-09T08:45:59.993Z,99013.97
2023-07-09T08:48:30.776Z,99014.69
2023-07-09T08:51:00.993Z,99012.28
2023-07-09T08:53:33.646Z,99007.38
2023-07-09T08:56:01.375Z,99008.72
2023-07-09T08:58:30.669Z,99018.38
2023-07-09T09:01:01.938Z,99009.03
2023-07-09T09:03:32.981Z,99013.72
2023-07-09T09:06:00.737Z,99017.91
2023-07-09T09:08:35.894Z,99016.44
2023-07-09T09:11:10.408Z,99026.16
2023-07-09T09:13:39.410Z,99017.88
2023-07-09T09:16:24.745Z,99018.41
2023-07-09T09:18:52.481Z,99013.81
2023-07-09T09:21:25.390Z,99013.00
2023-07-09T09:23:54.413Z,99009.47
2023-07-09T09:26:25.150Z,99002.38
2023-07-09T09:28:53.609Z,99014.03
2023-07-09T09:31:26.817Z,99000.66
2023-07-09T09:33:54.704Z,99005.81
2023-07-09T09:36:24.320Z,98996.19
2023-07-09T09:38:52.632Z,98992.06
2023-07-09T09:41:22.476Z,98996.19
2023-07-09T09:43:53.594Z,98995.88
2023-07-09T09:46:23.244Z,98998.78
2023-07-09T09:48:56.435Z,99004.31
2023-07-09T09:51:25.930Z,99007.41
2023-07-09T09:53:59.054Z,99011.63
2023-07-09T09:56:29.898Z,99010.41
2023-07-09T09:58:59.726Z,98993.84
2023-07-09T10:01:32.104Z,98994.53
2023-07-09T10:04:03.115Z,98989.41
2023-07-09T10:06:38.663Z,98995.91
2023-07-09T10:09:17.018Z,98982.28
2023-07-09T10:11:48.868Z,98980.09
2023-07-09T10:14:36.207Z,98959.88
2023-07-09T10:17:16.323Z,98969.16
2023-07-09T10:19:58.227Z,98972.34
2023-07-09T10:22:43.982Z,98964.75
2023-07-09T10:25:25.804Z,98969.59
2023-07-09T10:28:08.626Z,98965.66
2023-07-09T10:30:45.205Z,98958.78
2023-07-09T10:33:16.064Z,98960.63
2023-07-09T10:35:53.222Z,98956.72
2023-07-09T10:38:43.099Z,98947.88
2023-07-09T10:41:24.560Z,98949.88
2023-07-09T10:43:59.890Z,98941.66
2023-07-09T10:46:30.311Z,98949.44
2023-07-09T10:49:00.611Z,98954.16
2023-07-09T10:51:39.207Z,98937.31
2023-07-09T10:54:17.483Z,98938.69
2023-07-09T10:56:52.109Z,98937.78
2023-07-09T10:59:24.814Z,98925.59
2023-07-09T11:02:01.205Z,98935.28
2023-07-09T11:04:35.592Z,98930.84
2023-07-09T11:07:08.801Z,98922.72
2023-07-09T11:09:41.889Z,98925.50
2023-07-09T11:12:15.842Z,98925.56
2023-07-09T11:14:49.762Z,98923.06
2023-07-09T11:17:21.189Z,98913.91
2023-07-09T11:19:51.075Z,98915.19
2023-07-09T11:22:25.128Z,98918.03
2023-07-09T11:24:56.713Z,98928.09
2023-07-09T11:27:26.312Z,98918.22
2023-07-09T11:30:02.358Z,98911.41
2023-07-09T11:32:30.909Z,98910.69
2023-07-09T11:35:09.608Z,98904.28
2023-07-09T11:37:48.072Z,98915.84
2023-07-09T11:40:20.087Z,98905.63
2023-07-09T11:42:54.432Z,98906.59
2023-07-09T11:45:27.591Z,98902.59
2023-07-09T11:48:05.272Z,98906.06
2023-07-09T11:50:36.661Z,98904.91
2023-07-09T11:53:19.025Z,98904.94
2023-07-09T11:55:48.795Z,98899.84
2023-07-09T11:58:19.173Z,98895.06
2023-07-09T12:00:49.869Z,98900.13
2023-07-09T12:03:21.934Z,98894.81
2023-07-09T12:05:53.634Z,98888.25
2023-07-09T12:08:29.580Z,98895.44
2023-07-09T12:10:57.341Z,98888.50
2023-07-09T12:13:25.266Z,98882.03
2023-07-09T12:15:53.199Z,98881.03
2023-07-09T12:18:21.132Z,98885.13
2023-07-09T12:20:53.104Z,98868.50
2023-07-09T12:23:30.043Z,98866.81
2023-07-09T12:26:02.287Z,98868.00
2023-07-09T12:28:31.440Z,98865.41
2023-07-09T12:30:59.240Z,98869.16
2023-07-09T12:33:29.006Z,98871.94
2023-07-09T12:35:59.312Z,98866.91
2023-07-09T12:38:32.384Z,98863.38
2023-07-09T12:41:03.164Z,98859.97
2023-07-09T12:43:32.983Z,98858.69
2023-07-09T12:46:01.991Z,98848.16
2023-07-09T12:48:31.832Z,98854.00
2023-07-09T12:51:02.139Z,98837.41
2023-07-09T12:53:31.596Z,98834.56
2023-07-09T12:56:01.618Z,98841.94
2023-07-09T12:58:31.987Z,98828.63
2023-07-09T13:01:02.405Z,98831.28
2023-07-09T13:03:33.573Z,98817.88
2023-07-09T13:06:04.675Z,98821.22
2023-07-09T13:08:42.173Z,98804.94
2023-07-09T13:11:16.839Z,98809.88
2023-07-09T13:13:56.643Z,98809.28
2023-07-09T13:16:24.557Z,98806.41
2023-07-09T13:18:52.481Z,98786.38
2023-07-09T13:21:22.574Z,98790.63
2023-07-09T13:23:53.351Z,98790.94
2023-07-09T13:26:21.204Z,98782.91
2023-07-09T13:28:50.945Z,98792.00
2023-07-09T13:31:22.676Z,98777.88
2023-07-09T13:33:56.238Z,98781.88
2023-07-09T13:36:24.103Z,98779.84
2023-07-09T13:38:53.401Z,98785.97
2023-07-09T13:41:23.611Z,98776.94
2023-07-09T13:43:54.386Z,98780.69
2023-07-09T13:46:26.828Z,98780.81
2023-07-09T13:48:54.827Z,98777.38
2023-07-09T13:51:25.391Z,98781.63
2023-07-09T13:53:56.826Z,98781.56
2023-07-09T13:56:25.755Z,98768.88
2023-07-09T13:58:54.094Z,98780.63
2023-07-09T14:01:25.184Z,98769.13
2023-07-09T14:04:00.516Z,98773.69
2023-07-09T14:06:28.523Z,98762.69
2023-07-09T14:08:57.634Z,98764.16
2023-07-09T14:11:27.888Z,98762.44
2023-07-09T14:13:56.636Z,98762.25
2023-07-09T14:16:26.781Z,98749.28
2023-07-09T14:18:55.048Z,98751.59
2023-07-09T14:21:26.475Z,98750.56
2023-07-09T14:23:54.961Z,98744.94
2023-07-09T14:26:24.220Z,98743.53
2023-07-09T14:28:52.154Z,98735.06
2023-07-09T14:31:25.427Z,98735.88
2023-07-09T14:33:56.641Z,98745.94
2023-07-09T14:36:24.739Z,98731.72
2023-07-09T14:38:52.556Z,98723.44
2023-07-09T14:41:26.411Z,98714.38
2023-07-09T14:43:56.898Z,98713.50
2023-07-09T14:46:24.735Z,98713.22
2023-07-09T14:48:52.573Z,98722.31
2023-07-09T14:51:21.130Z,98711.41
2023-07-09T14:53:49.419Z,98712.34
2023-07-09T14:56:17.601Z,98718.06
2023-07-09T14:58:47.048Z,98706.34
2023-07-09T15:01:16.120Z,98703.22
2023-07-09T15:03:45.362Z,98708.06
2023-07-09T15:06:13.508Z,98716.53
2023-07-09T15:08:41.396Z,98704.50
2023-07-09T15:11:11.640Z,98704.25
2023-07-09T15:13:39.486Z,98710.66
2023-07-09T15:16:08.819Z,98705.53
2023-07-09T15:18:37.801Z,98709.34
2023-07-09T15:21:06.646Z,98712.63
2023-07-09T15:23:41.660Z,98705.22
2023-07-09T15:26:15.008Z,98701.16
2023-07-09T15:28:43.099Z,98695.19
2023-07-09T15:31:14.795Z,98694.50
2023-07-09T15:33:43.043Z,98689.75
2023-07-09T15:36:13.157Z,98694.69
2023-07-09T15:38:43.064Z,98700.47
2023-07-09T15:41:14.038Z,98695.66
2023-07-09T15:43:44.341Z,98698.44
2023-07-09T15:46:19.999Z,98694.09
2023-07-09T15:48:48.888Z,98694.22
2023-07-09T15:51:16.796Z,98693.34
2023-07-09T15:53:44.599Z,98706.28
2023-07-09T15:56:18.144Z,98699.34
2023-07-09T15:58:48.110Z,98693.00
2023-07-09T16:01:17.782Z,98689.44
2023-07-09T16:03:49.713Z,98691.25
2023-07-09T16:06:20.933Z,98695.72
2023-07-09T16:08:49.062Z,98697.78
2023-07-09T16:11:18.401Z,98694.47
2023-07-09T16:13:47.489Z,98687.50
2023-07-09T16:16:22.630Z,98692.53
2023-07-09T16:18:52.921Z,98694.16
2023-07-09T16:21:26.375Z,98691.84
2023-07-09T16:23:55.192Z,98699.00
2023-07-09T16:26:24.099Z,98696.81
2023-07-09T16:28:52.528Z,98688.19
2023-07-09T16:31:21.840Z,98688.34
2023-07-09T16:33:49.924Z,98689.47
2023-07-09T16:36:19.720Z,98683.09
2023-07-09T16:38:48.239Z,98668.69
2023-07-09T16:41:20.516Z,98670.75
2023-07-09T16:43:48.516Z,98682.31
2023-07-09T16:46:21.940Z,98678.00
2023-07-09T16:48:55.481Z,98675.91
2023-07-09T16:51:23.625Z,98682.38
2023-07-09T16:53:52.117Z,98674.66
2023-07-09T16:56:20.856Z,98676.94
2023-07-09T16:58:48.843Z,98676.34
2023-07-09T17:01:16.726Z,98678.72
2023-07-09T17:03:44.601Z,98675.75
2023-07-09T17:06:14.113Z,98675.97
2023-07-09T17:08:42.153Z,98669.63
2023-07-09T17:11:11.935Z,98661.16
2023-07-09T17:13:42.409Z,98648.56
2023-07-09T17:16:12.627Z,98645.00
2023-07-09T17:18:40.399Z,98646.72
2023-07-09T17:21:10.216Z,98645.00
2023-07-09T17:23:40.227Z,98632.41
2023-07-09T17:26:09.297Z,98630.22
2023-07-09T17:28:37.133Z,98626.69
2023-07-09T17:31:05.050Z,98641.25
2023-07-09T17:33:33.273Z,98645.38
2023-07-09T17:36:01.335Z,98662.22
2023-07-09T17:38:35.579Z,98657.28
2023-07-09T17:41:05.546Z,98656.06
2023-07-09T17:43:33.482Z,98653.34
2023-07-09T17:46:03.339Z,98654.69
2023-07-09T17:48:37.209Z,98658.25
2023-07-09T17:51:05.682Z,98655.00
2023-07-09T17:53:37.109Z,98659.38
2023-07-09T17:56:20.098Z,98670.34
2023-07-09T17:58:49.059Z,98663.16
2023-07-09T18:01:17.023Z,98663.69
2023-07-09T18:03:44.904Z,98672.19
2023-07-09T18:06:17.098Z,98670.22
2023-07-09T18:08:47.910Z,98677.31
2023-07-09T18:11:29.110Z,98676.22
2023-07-09T18:14:01.544Z,98683.25
2023-07-09T18:16:29.690Z,98674.75
2023-07-09T18:19:03.127Z,98687.63
2023-07-09T18:21:31.087Z,98678.03
2023-07-09T18:23:58.810Z,98688.53
2023-07-09T18:26:32.001Z,98675.03
2023-07-09T18:28:59.882Z,98679.44
2023-07-09T18:31:30.000Z,98683.34
2023-07-09T18:33:57.854Z,98679.22
2023-07-09T18:36:25.664Z,98690.59
2023-07-09T18:38:53.533Z,98683.75
2023-07-09T18:41:21.307Z,98689.47
2023-07-09T18:43:51.276Z,98689.66
2023-07-09T18:46:19.206Z,98693.28
2023-07-09T18:48:47.794Z,98689.06
2023-07-09T18:51:16.569Z,98685.66
2023-07-09T18:53:45.055Z,98697.53
2023-07-09T18:56:12.813Z,98700.72
2023-07-09T18:58:40.612Z,98698.09
2023-07-09T19:01:20.217Z,98696.31
2023-07-09T19:03:48.339Z,98704.09
2023-07-09T19:06:16.234Z,98701.75
2023-07-09T19:08:44.141Z,98698.31
2023-07-09T19:11:11.989Z,98700.13
2023-07-09T19:13:39.821Z,98701.13
2023-07-09T19:16:24.654Z,98708.56
2023-07-09T19:18:53.274Z,98712.03
2023-07-09T19:21:21.130Z,98706.31
2023-07-09T19:23:49.047Z,98703.44
2023-07-09T19:26:16.895Z,98703.06
2023-07-09T19:28:46.343Z,98705.88
2023-07-09T19:31:14.301Z,98703.34
2023-07-09T19:33:43.563Z,98711.16
2023-07-09T19:36:23.318Z,98713.53
2023-07-09T19:38:53.224Z,98713.44
2023-07-09T19:41:22.423Z,98716.16
2023-07-09T19:43:50.492Z,98722.50
2023-07-09T19:46:21.495Z,98718.94
2023-07-09T19:48:51.202Z,98725.13
2023-07-09T19:51:19.107Z,98718.41
2023-07-09T19:53:46.962Z,98719.47
2023-07-09T19:56:14.770Z,98728.03
2023-07-09T19:58:42.628Z,98728.16
2023-07-09T20:01:13.248Z,98730.84
2023-07-09T20:03:41.442Z,98734.75
2023-07-09T20:06:12.410Z,98734.09
2023-07-09T20:08:42.491Z,98724.91
2023-07-09T20:11:13.142Z,98731.56
2023-07-09T20:13:41.311Z,98726.47
2023-07-09T20:16:21.678Z,98728.34
2023-07-09T20:18:49.472Z,98728.66
2023-07-09T20:21:21.470Z,98739.72
2023-07-09T20:23:49.249Z,98733.31
2023-07-09T20:26:17.542Z,98734.66
2023-07-09T20:28:45.503Z,98733.94
2023-07-09T20:31:20.720Z,98731.72
2023-07-09T20:33:48.752Z,98729.53
2023-07-09T20:36:17.951Z,98734.16
2023-07-09T20:38:45.770Z,98727.25
2023-07-09T20:41:20.398Z,98730.44
2023-07-09T20:43:48.941Z,98732.84
2023-07-09T20:46:17.838Z,98738.75
2023-07-09T20:48:45.742Z,98729.31
2023-07-09T20:51:13.603Z,98731.00
2023-07-09T20:53:45.231Z,98724.53
2023-07-09T20:56:16.405Z,98726.22
2023-07-09T20:58:44.282Z,98721.31
2023-07-09T21:01:17.891Z,98728.06
2023-07-09T21:03:45.888Z,98721.28
2023-07-09T21:06:17.484Z,98719.03
2023-07-09T21:08:46.762Z,98715.53
2023-07-09T21:11:14.685Z,98720.91
2023-07-09T21:13:42.589Z,98724.16
2023-07-09T21:16:20.918Z,98731.47
2023-07-09T21:18:48.979Z,98737.13
2023-07-09T21:21:17.517Z,98740.34
2023-07-09T21:23:46.780Z,98745.00
2023-07-09T21:26:16.894Z,98750.38
2023-07-09T21:28:44.738Z,98744.94
2023-07-09T21:31:19.574Z,98749.09
2023-07-09T21:33:47.622Z,98752.16
2023-07-09T21:36:15.497Z,98739.00
2023-07-09T21:38:43.287Z,98745.25
2023-07-09T21:41:12.472Z,98748.81
2023-07-09T21:43:40.248Z,98749.63
2023-07-09T21:46:20.153Z,98748.38
2023-07-09T21:48:50.366Z,98742.16
2023-07-09T21:51:18.233Z,98744.84
2023-07-09T21:54:15.455Z,98744.28
2023-07-09T21:56:35.149Z,98747.91
2023-07-09T21:59:04.089Z,98757.09
2023-07-09T22:01:31.977Z,98756.56
2023-07-09T22:04:00.719Z,98760.50
2023-07-09T22:06:28.648Z,98753.19
2023-07-09T22:08:56.493Z,98758.91
2023-07-09T22:11:28.060Z,98758.03
2023-07-09T22:13:59.777Z,98758.69
2023-07-09T22:16:29.906Z,98755.75
2023-07-09T22:18:59.911Z,98761.44
2023-07-09T22:21:29.762Z,98764.72
2023-07-09T22:23:57.578Z,98767.97
2023-07-09T22:26:25.400Z,98768.00
2023-07-09T22:28:53.248Z,98769.84
2023-07-09T22:31:22.624Z,98773.09
2023-07-09T22:33:51.637Z,98775.50
2023-07-09T22:36:19.691Z,98783.06
2023-07-09T22:38:47.637Z,98781.75
2023-07-09T22:41:15.537Z,98780.97
2023-07-09T22:43:43.710Z,98780.34
2023-07-09T22:46:17.426Z,98781.56
2023-07-09T22:48:47.616Z,98774.84
2023-07-09T22:51:16.026Z,98784.44
2023-07-09T22:53:43.861Z,98778.22
2023-07-09T22:56:11.859Z,98786.53
2023-07-09T22:58:39.725Z,98787.81
2023-07-09T23:01:15.102Z,98776.97
2023-07-09T23:03:44.388Z,98783.59
2023-07-09T23:06:16.232Z,98772.28
2023-07-09T23:08:44.988Z,98767.75
2023-07-09T23:11:14.871Z,98767.16
2023-07-09T23:13:43.382Z,98768.84
2023-07-09T23:16:16.280Z,98775.66
2023-07-09T23:18:47.781Z,98771.97
2023-07-09T23:21:20.678Z,98776.97
2023-07-09T23:23:49.112Z,98770.94
2023-07-09T23:26:17.826Z,98774.91
2023-07-09T23:28:45.668Z,98777.47
2023-07-09T23:31:28.699Z,98777.66
2023-07-09T23:33:58.420Z,98788.69
2023-07-09T23:36:28.460Z,98784.28
2023-07-09T23:38:56.539Z,98784.91
2023-07-09T23:41:26.790Z,98783.28
2023-07-09T23:43:56.803Z,98782.22
2023-07-09T23:46:27.162Z,98772.44
2023-07-09T23:49:04.965Z,98786.16
2023-07-09T23:51:40.032Z,98777.63
2023-07-09T23:54:10.290Z,98790.78
2023-07-09T23:56:38.507Z,98789.50
2023-07-09T23:59:07.970Z,98785.34
